sensor_id;sensor_type;location;lat;lon;timestamp;P1;durP1;ratioP1;P2;durP2;ratioP2
1214;SDS011;597;51.998;5.880;2022-07-15T00:01:55;6.83;;;3.50;;
1214;SDS011;597;51.998;5.880;2022-07-15T00:04:20;10.93;;;3.83;;
1214;SDS011;597;51.998;5.880;2022-07-15T00:06:45;6.97;;;3.50;;
1214;SDS011;597;51.998;5.880;2022-07-15T00:09:11;10.20;;;3.93;;
1214;SDS011;597;51.998;5.880;2022-07-15T00:11:36;10.00;;;4.90;;
1214;SDS011;597;51.998;5.880;2022-07-15T00:14:01;12.47;;;3.43;;
1214;SDS011;597;51.998;5.880;2022-07-15T00:16:26;5.07;;;3.60;;
1214;SDS011;597;51.998;5.880;2022-07-15T00:18:51;9.03;;;4.70;;
1214;SDS011;597;51.998;5.880;2022-07-15T00:21:17;6.73;;;4.33;;
1214;SDS011;597;51.998;5.880;2022-07-15T00:23:42;8.30;;;4.07;;
1214;SDS011;597;51.998;5.880;2022-07-15T00:26:07;13.23;;;4.80;;
1214;SDS011;597;51.998;5.880;2022-07-15T00:28:33;9.00;;;4.50;;
1214;SDS011;597;51.998;5.880;2022-07-15T00:30:58;8.17;;;3.83;;
1214;SDS011;597;51.998;5.880;2022-07-15T00:33:23;7.67;;;3.60;;
1214;SDS011;597;51.998;5.880;2022-07-15T00:35:48;8.17;;;3.47;;
1214;SDS011;597;51.998;5.880;2022-07-15T00:38:14;5.43;;;3.00;;
1214;SDS011;597;51.998;5.880;2022-07-15T00:40:44;12.30;;;4.57;;
1214;SDS011;597;51.998;5.880;2022-07-15T00:43:09;10.70;;;4.23;;
1214;SDS011;597;51.998;5.880;2022-07-15T00:45:35;15.27;;;4.47;;
1214;SDS011;597;51.998;5.880;2022-07-15T00:48:00;9.93;;;4.03;;
1214;SDS011;597;51.998;5.880;2022-07-15T00:50:28;6.90;;;3.60;;
1214;SDS011;597;51.998;5.880;2022-07-15T00:52:55;11.27;;;4.40;;
1214;SDS011;597;51.998;5.880;2022-07-15T00:55:23;11.03;;;3.80;;
1214;SDS011;597;51.998;5.880;2022-07-15T00:57:49;12.67;;;5.27;;
1214;SDS011;597;51.998;5.880;2022-07-15T01:00:15;11.33;;;4.10;;
1214;SDS011;597;51.998;5.880;2022-07-15T01:02:41;16.90;;;4.37;;
1214;SDS011;597;51.998;5.880;2022-07-15T01:05:10;9.17;;;4.13;;
1214;SDS011;597;51.998;5.880;2022-07-15T01:07:38;11.30;;;4.57;;
1214;SDS011;597;51.998;5.880;2022-07-15T01:10:04;11.67;;;4.10;;
1214;SDS011;597;51.998;5.880;2022-07-15T01:12:29;10.73;;;2.90;;
1214;SDS011;597;51.998;5.880;2022-07-15T01:14:55;7.83;;;5.00;;
1214;SDS011;597;51.998;5.880;2022-07-15T01:17:21;13.90;;;4.13;;
1214;SDS011;597;51.998;5.880;2022-07-15T01:19:46;10.80;;;4.80;;
1214;SDS011;597;51.998;5.880;2022-07-15T01:22:11;8.47;;;4.00;;
1214;SDS011;597;51.998;5.880;2022-07-15T01:24:36;8.53;;;3.67;;
1214;SDS011;597;51.998;5.880;2022-07-15T01:27:02;10.57;;;4.00;;
1214;SDS011;597;51.998;5.880;2022-07-15T01:29:28;7.10;;;4.50;;
1214;SDS011;597;51.998;5.880;2022-07-15T01:31:53;9.90;;;3.67;;
1214;SDS011;597;51.998;5.880;2022-07-15T01:34:19;7.07;;;3.83;;
1214;SDS011;597;51.998;5.880;2022-07-15T01:36:44;7.13;;;3.37;;
1214;SDS011;597;51.998;5.880;2022-07-15T01:39:09;15.80;;;4.30;;
1214;SDS011;597;51.998;5.880;2022-07-15T01:41:35;10.03;;;3.70;;
1214;SDS011;597;51.998;5.880;2022-07-15T01:44:00;14.20;;;4.90;;
1214;SDS011;597;51.998;5.880;2022-07-15T01:46:25;7.43;;;4.03;;
1214;SDS011;597;51.998;5.880;2022-07-15T01:48:50;6.17;;;3.90;;
1214;SDS011;597;51.998;5.880;2022-07-15T01:51:34;10.47;;;3.80;;
1214;SDS011;597;51.998;5.880;2022-07-15T01:53:59;5.70;;;3.40;;
1214;SDS011;597;51.998;5.880;2022-07-15T01:56:25;8.70;;;3.70;;
1214;SDS011;597;51.998;5.880;2022-07-15T01:58:50;8.83;;;3.90;;
1214;SDS011;597;51.998;5.880;2022-07-15T02:01:15;6.80;;;3.80;;
1214;SDS011;597;51.998;5.880;2022-07-15T02:03:43;9.13;;;4.30;;
1214;SDS011;597;51.998;5.880;2022-07-15T02:06:08;11.13;;;4.80;;
1214;SDS011;597;51.998;5.880;2022-07-15T02:08:33;8.67;;;4.10;;
1214;SDS011;597;51.998;5.880;2022-07-15T02:10:58;8.50;;;3.63;;
1214;SDS011;597;51.998;5.880;2022-07-15T02:13:24;10.60;;;3.90;;
1214;SDS011;597;51.998;5.880;2022-07-15T02:15:49;13.43;;;3.47;;
1214;SDS011;597;51.998;5.880;2022-07-15T02:18:14;18.17;;;4.57;;
1214;SDS011;597;51.998;5.880;2022-07-15T02:20:39;8.07;;;3.93;;
1214;SDS011;597;51.998;5.880;2022-07-15T02:23:05;11.33;;;3.67;;
1214;SDS011;597;51.998;5.880;2022-07-15T02:25:31;7.40;;;3.87;;
1214;SDS011;597;51.998;5.880;2022-07-15T02:27:59;8.13;;;4.13;;
1214;SDS011;597;51.998;5.880;2022-07-15T02:30:25;13.63;;;3.90;;
1214;SDS011;597;51.998;5.880;2022-07-15T02:32:50;12.03;;;4.90;;
1214;SDS011;597;51.998;5.880;2022-07-15T02:35:15;14.60;;;4.40;;
1214;SDS011;597;51.998;5.880;2022-07-15T02:37:41;8.30;;;3.87;;
1214;SDS011;597;51.998;5.880;2022-07-15T02:40:07;9.47;;;3.17;;
1214;SDS011;597;51.998;5.880;2022-07-15T02:42:33;6.73;;;3.60;;
1214;SDS011;597;51.998;5.880;2022-07-15T02:44:59;11.87;;;4.20;;
1214;SDS011;597;51.998;5.880;2022-07-15T02:47:24;11.87;;;4.53;;
1214;SDS011;597;51.998;5.880;2022-07-15T02:49:49;5.60;;;3.40;;
1214;SDS011;597;51.998;5.880;2022-07-15T02:52:14;9.57;;;3.80;;
1214;SDS011;597;51.998;5.880;2022-07-15T02:54:39;28.27;;;4.00;;
1214;SDS011;597;51.998;5.880;2022-07-15T02:57:04;5.30;;;3.30;;
1214;SDS011;597;51.998;5.880;2022-07-15T02:59:30;8.60;;;3.20;;
1214;SDS011;597;51.998;5.880;2022-07-15T03:01:55;13.67;;;3.70;;
1214;SDS011;597;51.998;5.880;2022-07-15T03:04:20;5.07;;;3.60;;
1214;SDS011;597;51.998;5.880;2022-07-15T03:06:46;8.90;;;3.70;;
1214;SDS011;597;51.998;5.880;2022-07-15T03:09:11;8.33;;;3.73;;
1214;SDS011;597;51.998;5.880;2022-07-15T03:11:36;10.50;;;4.07;;
1214;SDS011;597;51.998;5.880;2022-07-15T03:14:01;4.33;;;3.00;;
1214;SDS011;597;51.998;5.880;2022-07-15T03:16:27;8.43;;;4.37;;
1214;SDS011;597;51.998;5.880;2022-07-15T03:18:53;11.13;;;3.30;;
1214;SDS011;597;51.998;5.880;2022-07-15T03:21:18;4.97;;;2.60;;
1214;SDS011;597;51.998;5.880;2022-07-15T03:23:43;13.37;;;3.20;;
1214;SDS011;597;51.998;5.880;2022-07-15T03:26:09;9.60;;;3.53;;
1214;SDS011;597;51.998;5.880;2022-07-15T03:28:34;11.60;;;2.97;;
1214;SDS011;597;51.998;5.880;2022-07-15T03:30:59;5.90;;;3.60;;
1214;SDS011;597;51.998;5.880;2022-07-15T03:33:25;9.33;;;3.07;;
1214;SDS011;597;51.998;5.880;2022-07-15T03:35:50;4.03;;;2.30;;
1214;SDS011;597;51.998;5.880;2022-07-15T03:38:15;11.70;;;3.60;;
1214;SDS011;597;51.998;5.880;2022-07-15T03:40:40;5.57;;;3.60;;
1214;SDS011;597;51.998;5.880;2022-07-15T03:43:06;9.53;;;3.50;;
1214;SDS011;597;51.998;5.880;2022-07-15T03:45:31;7.87;;;2.97;;
1214;SDS011;597;51.998;5.880;2022-07-15T03:47:57;5.53;;;3.20;;
1214;SDS011;597;51.998;5.880;2022-07-15T03:50:22;4.43;;;3.13;;
1214;SDS011;597;51.998;5.880;2022-07-15T03:52:47;9.43;;;2.80;;
1214;SDS011;597;51.998;5.880;2022-07-15T03:55:13;13.70;;;3.63;;
1214;SDS011;597;51.998;5.880;2022-07-15T03:57:38;17.67;;;3.47;;
1214;SDS011;597;51.998;5.880;2022-07-15T04:00:04;8.67;;;3.20;;
1214;SDS011;597;51.998;5.880;2022-07-15T04:02:30;6.93;;;3.30;;
1214;SDS011;597;51.998;5.880;2022-07-15T04:04:55;7.50;;;3.50;;
1214;SDS011;597;51.998;5.880;2022-07-15T04:07:21;5.87;;;3.60;;
1214;SDS011;597;51.998;5.880;2022-07-15T04:09:46;8.20;;;3.00;;
1214;SDS011;597;51.998;5.880;2022-07-15T04:12:11;10.73;;;3.40;;
1214;SDS011;597;51.998;5.880;2022-07-15T04:14:36;7.60;;;4.23;;
1214;SDS011;597;51.998;5.880;2022-07-15T04:17:02;10.57;;;3.60;;
1214;SDS011;597;51.998;5.880;2022-07-15T04:19:28;6.80;;;3.10;;
1214;SDS011;597;51.998;5.880;2022-07-15T04:21:53;8.53;;;3.87;;
1214;SDS011;597;51.998;5.880;2022-07-15T04:24:19;9.60;;;3.07;;
1214;SDS011;597;51.998;5.880;2022-07-15T04:26:44;5.90;;;2.83;;
1214;SDS011;597;51.998;5.880;2022-07-15T04:29:09;7.50;;;2.90;;
1214;SDS011;597;51.998;5.880;2022-07-15T04:31:34;13.70;;;3.37;;
1214;SDS011;597;51.998;5.880;2022-07-15T04:34:00;7.30;;;3.07;;
1214;SDS011;597;51.998;5.880;2022-07-15T04:36:25;9.40;;;3.97;;
1214;SDS011;597;51.998;5.880;2022-07-15T04:38:50;13.47;;;3.93;;
1214;SDS011;597;51.998;5.880;2022-07-15T04:41:15;12.90;;;2.80;;
1214;SDS011;597;51.998;5.880;2022-07-15T04:43:40;6.40;;;2.80;;
1214;SDS011;597;51.998;5.880;2022-07-15T04:46:06;8.30;;;3.10;;
1214;SDS011;597;51.998;5.880;2022-07-15T04:48:31;9.80;;;3.20;;
1214;SDS011;597;51.998;5.880;2022-07-15T04:51:15;7.37;;;3.07;;
1214;SDS011;597;51.998;5.880;2022-07-15T04:53:40;10.40;;;3.27;;
1214;SDS011;597;51.998;5.880;2022-07-15T04:56:05;8.10;;;4.43;;
1214;SDS011;597;51.998;5.880;2022-07-15T04:58:30;11.37;;;3.20;;
1214;SDS011;597;51.998;5.880;2022-07-15T05:00:56;10.40;;;3.37;;
1214;SDS011;597;51.998;5.880;2022-07-15T05:03:21;7.80;;;3.50;;
1214;SDS011;597;51.998;5.880;2022-07-15T05:05:46;6.03;;;2.80;;
1214;SDS011;597;51.998;5.880;2022-07-15T05:08:12;7.13;;;3.30;;
1214;SDS011;597;51.998;5.880;2022-07-15T05:10:37;5.90;;;2.77;;
1214;SDS011;597;51.998;5.880;2022-07-15T05:13:03;16.80;;;3.83;;
1214;SDS011;597;51.998;5.880;2022-07-15T05:15:28;8.40;;;4.80;;
1214;SDS011;597;51.998;5.880;2022-07-15T05:17:53;8.80;;;3.60;;
1214;SDS011;597;51.998;5.880;2022-07-15T05:20:18;7.77;;;2.80;;
1214;SDS011;597;51.998;5.880;2022-07-15T05:22:45;13.70;;;4.10;;
1214;SDS011;597;51.998;5.880;2022-07-15T05:25:11;7.43;;;3.57;;
1214;SDS011;597;51.998;5.880;2022-07-15T05:27:37;6.97;;;3.53;;
1214;SDS011;597;51.998;5.880;2022-07-15T05:30:02;12.93;;;3.30;;
1214;SDS011;597;51.998;5.880;2022-07-15T05:32:28;8.77;;;3.47;;
1214;SDS011;597;51.998;5.880;2022-07-15T05:34:53;8.13;;;3.83;;
1214;SDS011;597;51.998;5.880;2022-07-15T05:37:18;12.63;;;4.00;;
1214;SDS011;597;51.998;5.880;2022-07-15T05:39:43;12.13;;;3.60;;
1214;SDS011;597;51.998;5.880;2022-07-15T05:42:23;8.27;;;3.53;;
1214;SDS011;597;51.998;5.880;2022-07-15T05:44:49;8.13;;;4.00;;
1214;SDS011;597;51.998;5.880;2022-07-15T05:47:14;6.40;;;2.50;;
1214;SDS011;597;51.998;5.880;2022-07-15T05:49:40;6.03;;;2.80;;
1214;SDS011;597;51.998;5.880;2022-07-15T05:52:06;5.13;;;2.90;;
1214;SDS011;597;51.998;5.880;2022-07-15T05:54:32;9.50;;;3.50;;
1214;SDS011;597;51.998;5.880;2022-07-15T05:56:57;6.90;;;3.27;;
1214;SDS011;597;51.998;5.880;2022-07-15T05:59:23;9.73;;;4.30;;
1214;SDS011;597;51.998;5.880;2022-07-15T06:01:49;6.13;;;4.07;;
1214;SDS011;597;51.998;5.880;2022-07-15T06:04:14;7.47;;;3.33;;
1214;SDS011;597;51.998;5.880;2022-07-15T06:06:40;8.10;;;3.00;;
1214;SDS011;597;51.998;5.880;2022-07-15T06:09:05;9.27;;;3.23;;
1214;SDS011;597;51.998;5.880;2022-07-15T06:11:30;12.83;;;3.27;;
1214;SDS011;597;51.998;5.880;2022-07-15T06:13:55;7.20;;;3.20;;
1214;SDS011;597;51.998;5.880;2022-07-15T06:16:21;10.93;;;3.50;;
1214;SDS011;597;51.998;5.880;2022-07-15T06:18:46;10.60;;;3.33;;
1214;SDS011;597;51.998;5.880;2022-07-15T06:21:13;9.33;;;2.70;;
1214;SDS011;597;51.998;5.880;2022-07-15T06:23:39;8.20;;;2.53;;
1214;SDS011;597;51.998;5.880;2022-07-15T06:26:05;7.40;;;3.37;;
1214;SDS011;597;51.998;5.880;2022-07-15T06:28:30;9.73;;;3.70;;
1214;SDS011;597;51.998;5.880;2022-07-15T06:30:55;11.43;;;3.17;;
1214;SDS011;597;51.998;5.880;2022-07-15T06:33:20;7.13;;;3.50;;
1214;SDS011;597;51.998;5.880;2022-07-15T06:35:46;5.63;;;3.17;;
1214;SDS011;597;51.998;5.880;2022-07-15T06:38:11;5.03;;;2.47;;
1214;SDS011;597;51.998;5.880;2022-07-15T06:40:36;4.23;;;2.13;;
1214;SDS011;597;51.998;5.880;2022-07-15T06:43:02;17.33;;;3.00;;
1214;SDS011;597;51.998;5.880;2022-07-15T06:45:27;12.23;;;3.10;;
1214;SDS011;597;51.998;5.880;2022-07-15T06:47:52;3.63;;;2.17;;
1214;SDS011;597;51.998;5.880;2022-07-15T06:50:17;6.20;;;2.30;;
1214;SDS011;597;51.998;5.880;2022-07-15T06:52:45;6.50;;;3.10;;
1214;SDS011;597;51.998;5.880;2022-07-15T06:55:10;20.63;;;3.20;;
1214;SDS011;597;51.998;5.880;2022-07-15T06:57:36;6.37;;;3.50;;
1214;SDS011;597;51.998;5.880;2022-07-15T07:00:02;7.13;;;2.47;;
1214;SDS011;597;51.998;5.880;2022-07-15T07:02:27;10.70;;;2.63;;
1214;SDS011;597;51.998;5.880;2022-07-15T07:04:52;6.30;;;2.00;;
1214;SDS011;597;51.998;5.880;2022-07-15T07:07:18;4.73;;;2.23;;
1214;SDS011;597;51.998;5.880;2022-07-15T07:09:43;18.50;;;4.43;;
1214;SDS011;597;51.998;5.880;2022-07-15T07:12:08;10.17;;;3.10;;
1214;SDS011;597;51.998;5.880;2022-07-15T07:14:34;4.97;;;2.60;;
1214;SDS011;597;51.998;5.880;2022-07-15T07:16:59;6.30;;;2.90;;
1214;SDS011;597;51.998;5.880;2022-07-15T07:19:24;5.20;;;2.97;;
1214;SDS011;597;51.998;5.880;2022-07-15T07:21:49;8.13;;;3.10;;
1214;SDS011;597;51.998;5.880;2022-07-15T07:24:15;7.23;;;2.50;;
1214;SDS011;597;51.998;5.880;2022-07-15T07:26:40;2.90;;;1.83;;
1214;SDS011;597;51.998;5.880;2022-07-15T07:29:05;3.40;;;1.90;;
1214;SDS011;597;51.998;5.880;2022-07-15T07:31:30;10.13;;;2.80;;
1214;SDS011;597;51.998;5.880;2022-07-15T07:33:56;4.43;;;2.00;;
1214;SDS011;597;51.998;5.880;2022-07-15T07:36:22;9.20;;;2.57;;
1214;SDS011;597;51.998;5.880;2022-07-15T07:38:47;5.13;;;1.70;;
1214;SDS011;597;51.998;5.880;2022-07-15T07:41:13;5.60;;;2.40;;
1214;SDS011;597;51.998;5.880;2022-07-15T07:43:38;3.00;;;1.43;;
1214;SDS011;597;51.998;5.880;2022-07-15T07:46:03;8.33;;;1.83;;
1214;SDS011;597;51.998;5.880;2022-07-15T07:48:29;5.20;;;1.90;;
1214;SDS011;597;51.998;5.880;2022-07-15T07:50:55;3.83;;;1.47;;
1214;SDS011;597;51.998;5.880;2022-07-15T07:53:20;3.20;;;1.70;;
1214;SDS011;597;51.998;5.880;2022-07-15T07:55:46;6.43;;;2.60;;
1214;SDS011;597;51.998;5.880;2022-07-15T07:58:12;5.23;;;1.80;;
1214;SDS011;597;51.998;5.880;2022-07-15T08:00:40;3.70;;;1.80;;
1214;SDS011;597;51.998;5.880;2022-07-15T08:03:05;4.20;;;2.00;;
1214;SDS011;597;51.998;5.880;2022-07-15T08:05:31;5.20;;;2.10;;
1214;SDS011;597;51.998;5.880;2022-07-15T08:10:38;4.40;;;1.90;;
1214;SDS011;597;51.998;5.880;2022-07-15T08:13:03;12.97;;;2.90;;
1214;SDS011;597;51.998;5.880;2022-07-15T08:15:29;12.70;;;2.80;;
1214;SDS011;597;51.998;5.880;2022-07-15T08:17:54;9.60;;;2.57;;
1214;SDS011;597;51.998;5.880;2022-07-15T08:20:19;11.17;;;4.20;;
1214;SDS011;597;51.998;5.880;2022-07-15T08:22:45;24.97;;;3.80;;
1214;SDS011;597;51.998;5.880;2022-07-15T08:25:10;7.80;;;3.07;;
1214;SDS011;597;51.998;5.880;2022-07-15T08:27:36;6.77;;;2.37;;
1214;SDS011;597;51.998;5.880;2022-07-15T08:30:01;5.53;;;1.93;;
1214;SDS011;597;51.998;5.880;2022-07-15T08:32:26;5.20;;;2.20;;
1214;SDS011;597;51.998;5.880;2022-07-15T08:34:51;4.60;;;1.60;;
1214;SDS011;597;51.998;5.880;2022-07-15T08:37:17;7.20;;;1.40;;
1214;SDS011;597;51.998;5.880;2022-07-15T08:39:42;9.13;;;1.87;;
1214;SDS011;597;51.998;5.880;2022-07-15T08:42:07;7.77;;;2.17;;
1214;SDS011;597;51.998;5.880;2022-07-15T08:44:33;3.00;;;1.70;;
1214;SDS011;597;51.998;5.880;2022-07-15T08:47:01;6.03;;;1.53;;
1214;SDS011;597;51.998;5.880;2022-07-15T08:49:26;2.23;;;1.50;;
1214;SDS011;597;51.998;5.880;2022-07-15T08:51:54;26.57;;;4.37;;
1214;SDS011;597;51.998;5.880;2022-07-15T08:54:21;7.43;;;2.43;;
1214;SDS011;597;51.998;5.880;2022-07-15T08:56:48;3.00;;;1.60;;
1214;SDS011;597;51.998;5.880;2022-07-15T08:59:13;2.80;;;1.30;;
1214;SDS011;597;51.998;5.880;2022-07-15T09:01:43;4.27;;;2.10;;
1214;SDS011;597;51.998;5.880;2022-07-15T09:04:08;3.33;;;1.70;;
1214;SDS011;597;51.998;5.880;2022-07-15T09:06:41;2.10;;;1.70;;
1214;SDS011;597;51.998;5.880;2022-07-15T09:11:52;5.23;;;1.83;;
1214;SDS011;597;51.998;5.880;2022-07-15T09:14:18;3.73;;;1.40;;
1214;SDS011;597;51.998;5.880;2022-07-15T09:16:44;6.03;;;2.00;;
1214;SDS011;597;51.998;5.880;2022-07-15T09:19:10;6.20;;;2.10;;
1214;SDS011;597;51.998;5.880;2022-07-15T09:21:35;4.10;;;1.77;;
1214;SDS011;597;51.998;5.880;2022-07-15T09:24:14;3.17;;;2.00;;
1214;SDS011;597;51.998;5.880;2022-07-15T09:26:40;3.70;;;1.90;;
1214;SDS011;597;51.998;5.880;2022-07-15T09:29:05;6.43;;;1.73;;
1214;SDS011;597;51.998;5.880;2022-07-15T09:31:55;4.43;;;2.10;;
1214;SDS011;597;51.998;5.880;2022-07-15T09:34:39;3.20;;;1.87;;
1214;SDS011;597;51.998;5.880;2022-07-15T09:37:22;5.23;;;1.97;;
1214;SDS011;597;51.998;5.880;2022-07-15T09:39:55;7.00;;;2.13;;
1214;SDS011;597;51.998;5.880;2022-07-15T09:42:21;2.47;;;1.60;;
1214;SDS011;597;51.998;5.880;2022-07-15T09:44:46;10.87;;;2.10;;
1214;SDS011;597;51.998;5.880;2022-07-15T09:47:15;3.43;;;1.77;;
1214;SDS011;597;51.998;5.880;2022-07-15T09:49:41;8.23;;;1.90;;
1214;SDS011;597;51.998;5.880;2022-07-15T09:52:10;8.83;;;2.13;;
1214;SDS011;597;51.998;5.880;2022-07-15T09:54:40;3.77;;;1.67;;
1214;SDS011;597;51.998;5.880;2022-07-15T09:57:06;9.37;;;2.20;;
1214;SDS011;597;51.998;5.880;2022-07-15T09:59:31;4.93;;;2.00;;
1214;SDS011;597;51.998;5.880;2022-07-15T10:01:57;5.30;;;1.50;;
1214;SDS011;597;51.998;5.880;2022-07-15T10:04:23;5.93;;;2.07;;
1214;SDS011;597;51.998;5.880;2022-07-15T10:06:50;5.90;;;1.80;;
1214;SDS011;597;51.998;5.880;2022-07-15T10:09:19;6.60;;;1.87;;
1214;SDS011;597;51.998;5.880;2022-07-15T10:11:46;4.07;;;2.07;;
1214;SDS011;597;51.998;5.880;2022-07-15T10:19:48;3.23;;;1.97;;
1214;SDS011;597;51.998;5.880;2022-07-15T10:29:45;4.53;;;1.70;;
1214;SDS011;597;51.998;5.880;2022-07-15T10:32:11;4.67;;;1.63;;
1214;SDS011;597;51.998;5.880;2022-07-15T10:34:38;7.20;;;1.50;;
1214;SDS011;597;51.998;5.880;2022-07-15T10:37:10;3.53;;;1.70;;
1214;SDS011;597;51.998;5.880;2022-07-15T10:42:13;9.43;;;2.07;;
1214;SDS011;597;51.998;5.880;2022-07-15T10:44:49;3.83;;;1.70;;
1214;SDS011;597;51.998;5.880;2022-07-15T10:49:46;8.93;;;2.00;;
1214;SDS011;597;51.998;5.880;2022-07-15T10:52:15;9.83;;;1.87;;
1214;SDS011;597;51.998;5.880;2022-07-15T10:54:42;4.90;;;1.73;;
1214;SDS011;597;51.998;5.880;2022-07-15T10:57:08;3.90;;;1.67;;
1214;SDS011;597;51.998;5.880;2022-07-15T10:59:38;3.63;;;1.60;;
1214;SDS011;597;51.998;5.880;2022-07-15T11:04:31;2.90;;;1.67;;
1214;SDS011;597;51.998;5.880;2022-07-15T11:12:11;3.40;;;1.40;;
1214;SDS011;597;51.998;5.880;2022-07-15T11:14:43;2.03;;;1.47;;
1214;SDS011;597;51.998;5.880;2022-07-15T11:17:09;8.10;;;1.93;;
1214;SDS011;597;51.998;5.880;2022-07-15T11:19:35;2.33;;;1.60;;
1214;SDS011;597;51.998;5.880;2022-07-15T11:22:01;2.77;;;1.53;;
1214;SDS011;597;51.998;5.880;2022-07-15T11:24:28;3.73;;;1.57;;
1214;SDS011;597;51.998;5.880;2022-07-15T11:26:53;3.70;;;1.90;;
1214;SDS011;597;51.998;5.880;2022-07-15T11:29:19;4.73;;;2.50;;
1214;SDS011;597;51.998;5.880;2022-07-15T11:31:44;2.50;;;1.80;;
1214;SDS011;597;51.998;5.880;2022-07-15T11:34:10;3.77;;;1.77;;
1214;SDS011;597;51.998;5.880;2022-07-15T11:36:35;2.13;;;1.37;;
1214;SDS011;597;51.998;5.880;2022-07-15T11:39:01;4.57;;;2.17;;
1214;SDS011;597;51.998;5.880;2022-07-15T11:41:26;5.80;;;1.70;;
1214;SDS011;597;51.998;5.880;2022-07-15T11:44:11;8.90;;;1.50;;
1214;SDS011;597;51.998;5.880;2022-07-15T11:46:56;3.40;;;1.40;;
1214;SDS011;597;51.998;5.880;2022-07-15T11:49:28;6.20;;;2.00;;
1214;SDS011;597;51.998;5.880;2022-07-15T11:51:54;3.27;;;1.73;;
1214;SDS011;597;51.998;5.880;2022-07-15T11:54:20;3.50;;;1.30;;
1214;SDS011;597;51.998;5.880;2022-07-15T11:56:52;6.20;;;2.30;;
1214;SDS011;597;51.998;5.880;2022-07-15T11:59:18;5.87;;;1.83;;
1214;SDS011;597;51.998;5.880;2022-07-15T12:01:43;2.80;;;1.67;;
1214;SDS011;597;51.998;5.880;2022-07-15T12:04:08;2.47;;;1.40;;
1214;SDS011;597;51.998;5.880;2022-07-15T12:06:35;3.03;;;1.83;;
1214;SDS011;597;51.998;5.880;2022-07-15T12:09:03;2.57;;;1.53;;
1214;SDS011;597;51.998;5.880;2022-07-15T12:13:58;2.30;;;1.30;;
1214;SDS011;597;51.998;5.880;2022-07-15T12:16:28;4.80;;;1.90;;
1214;SDS011;597;51.998;5.880;2022-07-15T12:18:54;4.30;;;1.50;;
1214;SDS011;597;51.998;5.880;2022-07-15T12:21:21;5.63;;;2.07;;
1214;SDS011;597;51.998;5.880;2022-07-15T12:24:07;4.67;;;1.80;;
1214;SDS011;597;51.998;5.880;2022-07-15T12:26:34;4.67;;;1.43;;
1214;SDS011;597;51.998;5.880;2022-07-15T12:29:01;2.60;;;1.50;;
1214;SDS011;597;51.998;5.880;2022-07-15T12:31:27;6.57;;;1.73;;
1214;SDS011;597;51.998;5.880;2022-07-15T12:33:53;4.00;;;1.43;;
1214;SDS011;597;51.998;5.880;2022-07-15T12:36:20;3.00;;;1.40;;
1214;SDS011;597;51.998;5.880;2022-07-15T12:39:00;5.03;;;1.63;;
1214;SDS011;597;51.998;5.880;2022-07-15T12:41:26;6.00;;;1.97;;
1214;SDS011;597;51.998;5.880;2022-07-15T12:43:52;4.23;;;1.93;;
1214;SDS011;597;51.998;5.880;2022-07-15T12:46:18;5.13;;;1.63;;
1214;SDS011;597;51.998;5.880;2022-07-15T12:48:45;3.30;;;1.77;;
1214;SDS011;597;51.998;5.880;2022-07-15T12:51:12;2.60;;;1.93;;
1214;SDS011;597;51.998;5.880;2022-07-15T12:53:37;3.00;;;1.83;;
1214;SDS011;597;51.998;5.880;2022-07-15T12:56:03;2.43;;;1.63;;
1214;SDS011;597;51.998;5.880;2022-07-15T12:58:29;4.17;;;2.03;;
1214;SDS011;597;51.998;5.880;2022-07-15T13:01:06;4.10;;;1.80;;
1214;SDS011;597;51.998;5.880;2022-07-15T13:03:31;5.67;;;2.00;;
1214;SDS011;597;51.998;5.880;2022-07-15T13:05:56;6.53;;;2.10;;
1214;SDS011;597;51.998;5.880;2022-07-15T13:08:27;4.80;;;2.17;;
1214;SDS011;597;51.998;5.880;2022-07-15T13:10:53;2.70;;;1.17;;
1214;SDS011;597;51.998;5.880;2022-07-15T13:13:20;3.77;;;2.20;;
1214;SDS011;597;51.998;5.880;2022-07-15T13:15:46;5.20;;;1.60;;
1214;SDS011;597;51.998;5.880;2022-07-15T13:18:12;3.20;;;1.80;;
1214;SDS011;597;51.998;5.880;2022-07-15T13:20:38;4.60;;;1.60;;
1214;SDS011;597;51.998;5.880;2022-07-15T13:23:04;3.90;;;1.50;;
1214;SDS011;597;51.998;5.880;2022-07-15T13:25:29;4.93;;;1.87;;
1214;SDS011;597;51.998;5.880;2022-07-15T13:27:55;6.80;;;2.03;;
1214;SDS011;597;51.998;5.880;2022-07-15T13:30:20;1.97;;;1.17;;
1214;SDS011;597;51.998;5.880;2022-07-15T13:32:45;4.97;;;1.20;;
1214;SDS011;597;51.998;5.880;2022-07-15T13:35:11;5.20;;;1.80;;
1214;SDS011;597;51.998;5.880;2022-07-15T13:37:37;7.13;;;1.30;;
1214;SDS011;597;51.998;5.880;2022-07-15T13:40:03;3.17;;;1.30;;
1214;SDS011;597;51.998;5.880;2022-07-15T13:42:29;3.67;;;1.50;;
1214;SDS011;597;51.998;5.880;2022-07-15T13:44:54;2.23;;;1.20;;
1214;SDS011;597;51.998;5.880;2022-07-15T13:47:20;5.23;;;1.90;;
1214;SDS011;597;51.998;5.880;2022-07-15T13:49:45;1.57;;;1.07;;
1214;SDS011;597;51.998;5.880;2022-07-15T13:52:30;3.20;;;1.97;;
1214;SDS011;597;51.998;5.880;2022-07-15T13:54:55;3.63;;;1.70;;
1214;SDS011;597;51.998;5.880;2022-07-15T13:57:20;2.93;;;1.80;;
1214;SDS011;597;51.998;5.880;2022-07-15T13:59:45;2.77;;;1.50;;
1214;SDS011;597;51.998;5.880;2022-07-15T14:02:12;2.33;;;1.30;;
1214;SDS011;597;51.998;5.880;2022-07-15T14:04:37;5.33;;;1.50;;
1214;SDS011;597;51.998;5.880;2022-07-15T14:07:03;1.67;;;1.40;;
1214;SDS011;597;51.998;5.880;2022-07-15T14:09:28;7.73;;;1.57;;
1214;SDS011;597;51.998;5.880;2022-07-15T14:11:53;5.10;;;1.93;;
1214;SDS011;597;51.998;5.880;2022-07-15T14:14:19;7.07;;;1.50;;
1214;SDS011;597;51.998;5.880;2022-07-15T14:16:44;1.80;;;1.40;;
1214;SDS011;597;51.998;5.880;2022-07-15T14:19:10;4.43;;;2.17;;
1214;SDS011;597;51.998;5.880;2022-07-15T14:21:35;3.20;;;1.40;;
1214;SDS011;597;51.998;5.880;2022-07-15T14:24:00;1.97;;;1.30;;
1214;SDS011;597;51.998;5.880;2022-07-15T14:26:25;2.00;;;1.27;;
1214;SDS011;597;51.998;5.880;2022-07-15T14:28:51;8.53;;;1.50;;
1214;SDS011;597;51.998;5.880;2022-07-15T14:31:16;3.10;;;2.00;;
1214;SDS011;597;51.998;5.880;2022-07-15T14:33:43;3.13;;;1.50;;
1214;SDS011;597;51.998;5.880;2022-07-15T14:36:08;2.70;;;1.20;;
1214;SDS011;597;51.998;5.880;2022-07-15T14:38:35;3.73;;;1.57;;
1214;SDS011;597;51.998;5.880;2022-07-15T14:41:00;7.77;;;1.57;;
1214;SDS011;597;51.998;5.880;2022-07-15T14:43:26;3.03;;;1.40;;
1214;SDS011;597;51.998;5.880;2022-07-15T14:45:51;5.53;;;1.80;;
1214;SDS011;597;51.998;5.880;2022-07-15T14:48:16;2.40;;;1.53;;
1214;SDS011;597;51.998;5.880;2022-07-15T14:50:41;3.63;;;1.70;;
1214;SDS011;597;51.998;5.880;2022-07-15T14:53:07;2.40;;;1.50;;
1214;SDS011;597;51.998;5.880;2022-07-15T14:55:32;1.90;;;1.63;;
1214;SDS011;597;51.998;5.880;2022-07-15T14:57:58;3.50;;;2.00;;
1214;SDS011;597;51.998;5.880;2022-07-15T15:00:23;3.37;;;1.53;;
1214;SDS011;597;51.998;5.880;2022-07-15T15:02:48;2.33;;;1.60;;
1214;SDS011;597;51.998;5.880;2022-07-15T15:05:14;3.40;;;1.70;;
1214;SDS011;597;51.998;5.880;2022-07-15T15:07:39;3.23;;;1.90;;
1214;SDS011;597;51.998;5.880;2022-07-15T15:10:04;1.73;;;1.43;;
1214;SDS011;597;51.998;5.880;2022-07-15T15:12:30;3.93;;;2.27;;
1214;SDS011;597;51.998;5.880;2022-07-15T15:14:55;2.33;;;1.80;;
1214;SDS011;597;51.998;5.880;2022-07-15T15:17:20;1.93;;;1.43;;
1214;SDS011;597;51.998;5.880;2022-07-15T15:19:45;5.40;;;2.30;;
1214;SDS011;597;51.998;5.880;2022-07-15T15:22:11;5.23;;;2.00;;
1214;SDS011;597;51.998;5.880;2022-07-15T15:24:36;6.13;;;2.20;;
1214;SDS011;597;51.998;5.880;2022-07-15T15:27:02;4.90;;;1.60;;
1214;SDS011;597;51.998;5.880;2022-07-15T15:29:29;4.67;;;2.60;;
1214;SDS011;597;51.998;5.880;2022-07-15T15:31:54;4.43;;;1.90;;
1214;SDS011;597;51.998;5.880;2022-07-15T15:34:20;2.90;;;1.90;;
1214;SDS011;597;51.998;5.880;2022-07-15T15:36:45;2.40;;;1.50;;
1214;SDS011;597;51.998;5.880;2022-07-15T15:39:11;5.20;;;2.43;;
1214;SDS011;597;51.998;5.880;2022-07-15T15:41:36;2.70;;;1.60;;
1214;SDS011;597;51.998;5.880;2022-07-15T15:44:02;5.57;;;1.73;;
1214;SDS011;597;51.998;5.880;2022-07-15T15:46:27;5.50;;;2.07;;
1214;SDS011;597;51.998;5.880;2022-07-15T15:48:52;7.30;;;2.07;;
1214;SDS011;597;51.998;5.880;2022-07-15T15:51:17;4.10;;;2.00;;
1214;SDS011;597;51.998;5.880;2022-07-15T15:53:42;3.40;;;2.00;;
1214;SDS011;597;51.998;5.880;2022-07-15T15:56:08;4.93;;;2.43;;